sensor_id;sensor_type;location;lat;lon;timestamp;temperature;humidity
66740;DHT22;53653;52.188;8.602;2023-05-29T00:00:26;11.93;78.77
66740;DHT22;53653;52.188;8.602;2023-05-29T00:02:52;11.90;79.05
66740;DHT22;53653;52.188;8.602;2023-05-29T00:05:18;11.86;79.30
66740;DHT22;53653;52.188;8.602;2023-05-29T00:07:44;11.77;79.49
66740;DHT22;53653;52.188;8.602;2023-05-29T00:10:10;11.66;79.77
66740;DHT22;53653;52.188;8.602;2023-05-29T00:12:37;11.67;79.92
66740;DHT22;53653;52.188;8.602;2023-05-29T00:15:03;11.61;79.81
66740;DHT22;53653;52.188;8.602;2023-05-29T00:17:29;11.58;80.18
66740;DHT22;53653;52.188;8.602;2023-05-29T00:20:01;11.58;80.03
66740;DHT22;53653;52.188;8.602;2023-05-29T00:22:31;11.61;79.98
66740;DHT22;53653;52.188;8.602;2023-05-29T00:24:56;11.58;79.99
66740;DHT22;53653;52.188;8.602;2023-05-29T00:27:22;11.49;80.25
66740;DHT22;53653;52.188;8.602;2023-05-29T00:29:48;11.46;80.21
66740;DHT22;53653;52.188;8.602;2023-05-29T00:32:13;11.31;80.96
66740;DHT22;53653;52.188;8.602;2023-05-29T00:34:39;11.38;80.70
66740;DHT22;53653;52.188;8.602;2023-05-29T00:37:05;11.31;80.69
66740;DHT22;53653;52.188;8.602;2023-05-29T00:39:31;11.24;80.96
66740;DHT22;53653;52.188;8.602;2023-05-29T00:41:57;11.14;81.15
66740;DHT22;53653;52.188;8.602;2023-05-29T00:44:23;11.11;81.35
66740;DHT22;53653;52.188;8.602;2023-05-29T00:46:51;11.08;81.50
66740;DHT22;53653;52.188;8.602;2023-05-29T00:49:19;11.11;81.40
66740;DHT22;53653;52.188;8.602;2023-05-29T00:51:45;11.08;81.23
66740;DHT22;53653;52.188;8.602;2023-05-29T00:54:14;11.10;81.16
66740;DHT22;53653;52.188;8.602;2023-05-29T00:56:43;11.08;80.91
66740;DHT22;53653;52.188;8.602;2023-05-29T00:59:11;11.00;81.18
66740;DHT22;53653;52.188;8.602;2023-05-29T01:01:37;10.97;81.37
66740;DHT22;53653;52.188;8.602;2023-05-29T01:04:05;10.93;81.47
66740;DHT22;53653;52.188;8.602;2023-05-29T01:06:32;10.87;81.59
66740;DHT22;53653;52.188;8.602;2023-05-29T01:08:58;10.80;81.88
66740;DHT22;53653;52.188;8.602;2023-05-29T01:12:03;10.80;81.75
66740;DHT22;53653;52.188;8.602;2023-05-29T01:17:14;10.81;81.66
66740;DHT22;53653;52.188;8.602;2023-05-29T01:20:02;10.81;81.42
66740;DHT22;53653;52.188;8.602;2023-05-29T01:22:57;10.71;81.64
66740;DHT22;53653;52.188;8.602;2023-05-29T01:25:34;10.78;81.42
66740;DHT22;53653;52.188;8.602;2023-05-29T01:28:08;10.78;81.01
66740;DHT22;53653;52.188;8.602;2023-05-29T01:30:39;10.88;80.79
66740;DHT22;53653;52.188;8.602;2023-05-29T01:33:07;10.83;80.83
66740;DHT22;53653;52.188;8.602;2023-05-29T01:35:32;10.87;80.58
66740;DHT22;53653;52.188;8.602;2023-05-29T01:37:58;10.80;80.80
66740;DHT22;53653;52.188;8.602;2023-05-29T01:40:24;10.81;80.74
66740;DHT22;53653;52.188;8.602;2023-05-29T01:42:51;10.81;80.76
66740;DHT22;53653;52.188;8.602;2023-05-29T01:45:17;10.73;80.95
66740;DHT22;53653;52.188;8.602;2023-05-29T01:47:46;10.71;81.05
66740;DHT22;53653;52.188;8.602;2023-05-29T01:50:15;10.68;81.20
66740;DHT22;53653;52.188;8.602;2023-05-29T01:52:43;10.66;81.33
66740;DHT22;53653;52.188;8.602;2023-05-29T01:55:09;10.64;81.24
66740;DHT22;53653;52.188;8.602;2023-05-29T01:57:35;10.68;80.94
66740;DHT22;53653;52.188;8.602;2023-05-29T02:00:05;10.68;80.87
66740;DHT22;53653;52.188;8.602;2023-05-29T02:02:40;10.64;81.02
66740;DHT22;53653;52.188;8.602;2023-05-29T02:05:07;10.61;81.41
66740;DHT22;53653;52.188;8.602;2023-05-29T02:07:34;10.57;81.48
66740;DHT22;53653;52.188;8.602;2023-05-29T02:09:59;10.53;81.74
66740;DHT22;53653;52.188;8.602;2023-05-29T02:12:25;10.57;81.73
66740;DHT22;53653;52.188;8.602;2023-05-29T02:14:51;10.49;82.04
66740;DHT22;53653;52.188;8.602;2023-05-29T02:17:17;10.48;82.08
66740;DHT22;53653;52.188;8.602;2023-05-29T02:19:45;10.38;82.58
66740;DHT22;53653;52.188;8.602;2023-05-29T02:22:11;10.35;82.57
66740;DHT22;53653;52.188;8.602;2023-05-29T02:24:37;10.40;82.77
66740;DHT22;53653;52.188;8.602;2023-05-29T02:27:02;10.39;82.45
66740;DHT22;53653;52.188;8.602;2023-05-29T02:29:28;10.33;82.63
66740;DHT22;53653;52.188;8.602;2023-05-29T02:31:54;10.38;82.52
66740;DHT22;53653;52.188;8.602;2023-05-29T02:34:20;10.28;82.77
66740;DHT22;53653;52.188;8.602;2023-05-29T02:36:49;10.25;82.87
66740;DHT22;53653;52.188;8.602;2023-05-29T02:39:16;10.25;82.83
66740;DHT22;53653;52.188;8.602;2023-05-29T02:41:41;10.23;83.03
66740;DHT22;53653;52.188;8.602;2023-05-29T02:44:07;10.15;83.05
66740;DHT22;53653;52.188;8.602;2023-05-29T02:46:32;10.13;83.16
66740;DHT22;53653;52.188;8.602;2023-05-29T02:48:58;10.16;83.34
66740;DHT22;53653;52.188;8.602;2023-05-29T02:51:23;10.12;83.14
66740;DHT22;53653;52.188;8.602;2023-05-29T02:53:49;10.15;83.13
66740;DHT22;53653;52.188;8.602;2023-05-29T02:56:15;10.12;83.07
66740;DHT22;53653;52.188;8.602;2023-05-29T02:58:41;10.08;83.34
66740;DHT22;53653;52.188;8.602;2023-05-29T03:01:07;10.12;83.20
66740;DHT22;53653;52.188;8.602;2023-05-29T03:03:33;10.06;83.23
66740;DHT22;53653;52.188;8.602;2023-05-29T03:05:58;9.94;83.65
66740;DHT22;53653;52.188;8.602;2023-05-29T03:08:26;9.98;83.59
66740;DHT22;53653;52.188;8.602;2023-05-29T03:10:54;9.94;83.66
66740;DHT22;53653;52.188;8.602;2023-05-29T03:13:20;9.95;83.39
66740;DHT22;53653;52.188;8.602;2023-05-29T03:15:53;9.98;83.05
66740;DHT22;53653;52.188;8.602;2023-05-29T03:18:22;9.94;83.19
66740;DHT22;53653;52.188;8.602;2023-05-29T03:20:48;10.02;83.25
66740;DHT22;53653;52.188;8.602;2023-05-29T03:23:14;9.99;83.19
66740;DHT22;53653;52.188;8.602;2023-05-29T03:25:40;9.98;83.07
66740;DHT22;53653;52.188;8.602;2023-05-29T03:28:06;9.95;83.13
66740;DHT22;53653;52.188;8.602;2023-05-29T03:30:32;9.95;83.19
66740;DHT22;53653;52.188;8.602;2023-05-29T03:32:57;9.97;83.06
66740;DHT22;53653;52.188;8.602;2023-05-29T03:35:40;9.90;83.38
66740;DHT22;53653;52.188;8.602;2023-05-29T03:38:06;9.90;83.18
66740;DHT22;53653;52.188;8.602;2023-05-29T03:40:31;9.95;83.00
66740;DHT22;53653;52.188;8.602;2023-05-29T03:42:57;9.98;82.80
66740;DHT22;53653;52.188;8.602;2023-05-29T03:45:22;9.95;82.95
66740;DHT22;53653;52.188;8.602;2023-05-29T03:47:48;9.99;82.91
66740;DHT22;53653;52.188;8.602;2023-05-29T03:50:13;10.03;82.59
66740;DHT22;53653;52.188;8.602;2023-05-29T03:52:42;10.03;82.45
66740;DHT22;53653;52.188;8.602;2023-05-29T03:55:10;9.98;82.46
66740;DHT22;53653;52.188;8.602;2023-05-29T03:57:40;10.02;82.19
66740;DHT22;53653;52.188;8.602;2023-05-29T04:00:08;10.05;82.06
66740;DHT22;53653;52.188;8.602;2023-05-29T04:02:38;10.06;81.81
66740;DHT22;53653;52.188;8.602;2023-05-29T04:05:07;10.13;81.50
66740;DHT22;53653;52.188;8.602;2023-05-29T04:07:35;10.11;81.27
66740;DHT22;53653;52.188;8.602;2023-05-29T04:10:05;10.28;80.95
66740;DHT22;53653;52.188;8.602;2023-05-29T04:12:33;10.50;80.03
66740;DHT22;53653;52.188;8.602;2023-05-29T04:14:59;10.56;79.15
66740;DHT22;53653;52.188;8.602;2023-05-29T04:17:25;10.64;78.66
66740;DHT22;53653;52.188;8.602;2023-05-29T04:19:51;10.57;78.82
66740;DHT22;53653;52.188;8.602;2023-05-29T04:22:16;10.39;79.13
66740;DHT22;53653;52.188;8.602;2023-05-29T04:24:42;10.43;79.08
66740;DHT22;53653;52.188;8.602;2023-05-29T04:27:09;10.32;79.13
66740;DHT22;53653;52.188;8.602;2023-05-29T04:29:42;10.40;78.86
66740;DHT22;53653;52.188;8.602;2023-05-29T04:32:08;10.32;78.85
66740;DHT22;53653;52.188;8.602;2023-05-29T04:34:35;10.25;79.01
66740;DHT22;53653;52.188;8.602;2023-05-29T04:37:05;10.32;78.72
66740;DHT22;53653;52.188;8.602;2023-05-29T04:39:31;10.35;78.65
66740;DHT22;53653;52.188;8.602;2023-05-29T04:41:58;10.39;78.76
66740;DHT22;53653;52.188;8.602;2023-05-29T04:44:24;10.40;78.50
66740;DHT22;53653;52.188;8.602;2023-05-29T04:46:55;10.46;77.74
66740;DHT22;53653;52.188;8.602;2023-05-29T04:49:23;10.49;77.66
66740;DHT22;53653;52.188;8.602;2023-05-29T04:51:49;10.60;77.37
66740;DHT22;53653;52.188;8.602;2023-05-29T04:54:18;10.61;77.19
66740;DHT22;53653;52.188;8.602;2023-05-29T04:56:45;10.74;76.98
66740;DHT22;53653;52.188;8.602;2023-05-29T04:59:13;10.71;76.49
66740;DHT22;53653;52.188;8.602;2023-05-29T05:01:39;10.88;76.21
66740;DHT22;53653;52.188;8.602;2023-05-29T05:04:04;10.91;75.84
66740;DHT22;53653;52.188;8.602;2023-05-29T05:06:30;11.01;75.62
66740;DHT22;53653;52.188;8.602;2023-05-29T05:08:57;11.03;75.17
66740;DHT22;53653;52.188;8.602;2023-05-29T05:11:23;10.90;75.56
66740;DHT22;53653;52.188;8.602;2023-05-29T05:13:49;10.91;75.48
66740;DHT22;53653;52.188;8.602;2023-05-29T05:16:16;10.81;75.56
66740;DHT22;53653;52.188;8.602;2023-05-29T05:18:43;10.93;75.14
66740;DHT22;53653;52.188;8.602;2023-05-29T05:21:09;10.96;74.68
66740;DHT22;53653;52.188;8.602;2023-05-29T05:23:36;11.00;74.53
66740;DHT22;53653;52.188;8.602;2023-05-29T05:26:01;11.22;73.84
66740;DHT22;53653;52.188;8.602;2023-05-29T05:28:28;11.31;73.22
66740;DHT22;53653;52.188;8.602;2023-05-29T05:30:53;11.65;72.47
66740;DHT22;53653;52.188;8.602;2023-05-29T05:33:19;11.69;72.30
66740;DHT22;53653;52.188;8.602;2023-05-29T05:35:45;11.62;72.34
66740;DHT22;53653;52.188;8.602;2023-05-29T05:38:11;11.47;72.78
66740;DHT22;53653;52.188;8.602;2023-05-29T05:40:37;11.70;71.93
66740;DHT22;53653;52.188;8.602;2023-05-29T05:43:12;11.53;71.80
66740;DHT22;53653;52.188;8.602;2023-05-29T05:45:54;11.73;71.41
66740;DHT22;53653;52.188;8.602;2023-05-29T05:48:20;11.79;71.25
66740;DHT22;53653;52.188;8.602;2023-05-29T05:50:45;11.84;71.30
66740;DHT22;53653;52.188;8.602;2023-05-29T05:53:11;11.91;70.57
66740;DHT22;53653;52.188;8.602;2023-05-29T05:55:37;11.63;70.70
66740;DHT22;53653;52.188;8.602;2023-05-29T05:58:03;11.72;71.61
66740;DHT22;53653;52.188;8.602;2023-05-29T06:00:28;12.05;70.29
66740;DHT22;53653;52.188;8.602;2023-05-29T06:02:55;12.14;69.44
66740;DHT22;53653;52.188;8.602;2023-05-29T06:05:42;12.28;69.39
66740;DHT22;53653;52.188;8.602;2023-05-29T06:08:07;12.23;69.61
66740;DHT22;53653;52.188;8.602;2023-05-29T06:10:34;12.30;68.60
66740;DHT22;53653;52.188;8.602;2023-05-29T06:12:59;12.04;69.46
66740;DHT22;53653;52.188;8.602;2023-05-29T06:15:32;12.27;69.52
66740;DHT22;53653;52.188;8.602;2023-05-29T06:17:58;12.20;68.81
66740;DHT22;53653;52.188;8.602;2023-05-29T06:20:24;12.35;68.80
66740;DHT22;53653;52.188;8.602;2023-05-29T06:22:50;12.52;67.98
66740;DHT22;53653;52.188;8.602;2023-05-29T06:25:16;12.75;67.14
66740;DHT22;53653;52.188;8.602;2023-05-29T06:27:44;12.78;66.41
66740;DHT22;53653;52.188;8.602;2023-05-29T06:30:11;12.88;66.62
66740;DHT22;53653;52.188;8.602;2023-05-29T06:32:37;12.68;66.02
66740;DHT22;53653;52.188;8.602;2023-05-29T06:35:06;12.63;66.92
66740;DHT22;53653;52.188;8.602;2023-05-29T06:37:32;12.71;66.56
66740;DHT22;53653;52.188;8.602;2023-05-29T06:39:57;12.90;65.65
66740;DHT22;53653;52.188;8.602;2023-05-29T06:42:23;12.99;65.51
66740;DHT22;53653;52.188;8.602;2023-05-29T06:44:56;13.09;65.44
66740;DHT22;53653;52.188;8.602;2023-05-29T06:47:22;13.21;65.24
66740;DHT22;53653;52.188;8.602;2023-05-29T06:49:47;13.30;64.79
66740;DHT22;53653;52.188;8.602;2023-05-29T06:52:13;13.38;64.52
66740;DHT22;53653;52.188;8.602;2023-05-29T06:54:58;12.97;65.41
66740;DHT22;53653;52.188;8.602;2023-05-29T06:57:24;12.88;65.89
66740;DHT22;53653;52.188;8.602;2023-05-29T06:59:50;13.07;65.50
66740;DHT22;53653;52.188;8.602;2023-05-29T07:02:16;13.16;65.11
66740;DHT22;53653;52.188;8.602;2023-05-29T07:04:43;13.81;63.33
66740;DHT22;53653;52.188;8.602;2023-05-29T07:07:08;13.94;63.00
66740;DHT22;53653;52.188;8.602;2023-05-29T07:09:35;13.28;64.19
66740;DHT22;53653;52.188;8.602;2023-05-29T07:12:00;13.69;63.84
66740;DHT22;53653;52.188;8.602;2023-05-29T07:14:26;14.05;62.47
66740;DHT22;53653;52.188;8.602;2023-05-29T07:16:51;14.08;61.49
66740;DHT22;53653;52.188;8.602;2023-05-29T07:19:17;13.94;62.16
66740;DHT22;53653;52.188;8.602;2023-05-29T07:21:43;13.96;62.74
66740;DHT22;53653;52.188;8.602;2023-05-29T07:24:08;13.89;62.77
66740;DHT22;53653;52.188;8.602;2023-05-29T07:26:35;13.67;63.41
66740;DHT22;53653;52.188;8.602;2023-05-29T07:29:02;13.82;63.21
66740;DHT22;53653;52.188;8.602;2023-05-29T07:31:27;13.82;62.56
66740;DHT22;53653;52.188;8.602;2023-05-29T07:33:54;14.19;61.86
66740;DHT22;53653;52.188;8.602;2023-05-29T07:36:20;14.87;60.84
66740;DHT22;53653;52.188;8.602;2023-05-29T07:38:47;14.81;59.98
66740;DHT22;53653;52.188;8.602;2023-05-29T07:41:15;15.12;59.51
66740;DHT22;53653;52.188;8.602;2023-05-29T07:43:56;14.65;60.52
66740;DHT22;53653;52.188;8.602;2023-05-29T07:46:22;14.92;60.45
66740;DHT22;53653;52.188;8.602;2023-05-29T07:48:51;14.43;60.88
66740;DHT22;53653;52.188;8.602;2023-05-29T07:51:17;14.54;60.67
66740;DHT22;53653;52.188;8.602;2023-05-29T07:53:45;15.05;59.83
66740;DHT22;53653;52.188;8.602;2023-05-29T07:56:14;14.99;59.41
66740;DHT22;53653;52.188;8.602;2023-05-29T07:58:41;15.04;59.34
66740;DHT22;53653;52.188;8.602;2023-05-29T08:01:07;14.94;59.36
66740;DHT22;53653;52.188;8.602;2023-05-29T08:03:34;14.83;59.84
66740;DHT22;53653;52.188;8.602;2023-05-29T08:06:18;14.68;60.82
66740;DHT22;53653;52.188;8.602;2023-05-29T08:08:44;15.04;60.09
66740;DHT22;53653;52.188;8.602;2023-05-29T08:11:10;15.09;59.62
66740;DHT22;53653;52.188;8.602;2023-05-29T08:13:37;15.19;60.65
66740;DHT22;53653;52.188;8.602;2023-05-29T08:16:03;14.64;61.28
66740;DHT22;53653;52.188;8.602;2023-05-29T08:18:30;15.44;60.38
66740;DHT22;53653;52.188;8.602;2023-05-29T08:20:56;15.76;59.41
66740;DHT22;53653;52.188;8.602;2023-05-29T08:23:22;15.79;58.16
66740;DHT22;53653;52.188;8.602;2023-05-29T08:25:48;15.64;59.50
66740;DHT22;53653;52.188;8.602;2023-05-29T08:28:16;16.26;58.57
66740;DHT22;53653;52.188;8.602;2023-05-29T08:30:42;16.18;57.94
66740;DHT22;53653;52.188;8.602;2023-05-29T08:33:08;15.97;58.58
66740;DHT22;53653;52.188;8.602;2023-05-29T08:35:34;16.86;56.29
66740;DHT22;53653;52.188;8.602;2023-05-29T08:38:00;16.63;56.04
66740;DHT22;53653;52.188;8.602;2023-05-29T08:40:25;16.42;56.83
66740;DHT22;53653;52.188;8.602;2023-05-29T08:45:33;17.44;53.99
66740;DHT22;53653;52.188;8.602;2023-05-29T08:48:00;16.99;55.49
66740;DHT22;53653;52.188;8.602;2023-05-29T08:50:26;16.73;56.49
66740;DHT22;53653;52.188;8.602;2023-05-29T08:52:52;16.72;56.86
66740;DHT22;53653;52.188;8.602;2023-05-29T08:55:18;17.30;54.53
66740;DHT22;53653;52.188;8.602;2023-05-29T08:57:44;17.90;52.85
66740;DHT22;53653;52.188;8.602;2023-05-29T09:00:11;18.17;52.06
66740;DHT22;53653;52.188;8.602;2023-05-29T09:02:42;18.13;52.26
66740;DHT22;53653;52.188;8.602;2023-05-29T09:05:09;18.23;52.16
66740;DHT22;53653;52.188;8.602;2023-05-29T09:07:39;17.76;53.22
66740;DHT22;53653;52.188;8.602;2023-05-29T09:10:08;17.16;54.30
66740;DHT22;53653;52.188;8.602;2023-05-29T09:12:35;18.20;51.02
66740;DHT22;53653;52.188;8.602;2023-05-29T09:15:01;17.62;51.51
66740;DHT22;53653;52.188;8.602;2023-05-29T09:17:31;17.69;52.15
66740;DHT22;53653;52.188;8.602;2023-05-29T09:19:58;17.54;52.62
66740;DHT22;53653;52.188;8.602;2023-05-29T09:22:24;18.37;51.14
66740;DHT22;53653;52.188;8.602;2023-05-29T09:24:49;18.18;50.80
66740;DHT22;53653;52.188;8.602;2023-05-29T09:27:17;17.51;52.69
66740;DHT22;53653;52.188;8.602;2023-05-29T09:29:44;17.79;51.42
66740;DHT22;53653;52.188;8.602;2023-05-29T09:32:13;17.45;52.44
66740;DHT22;53653;52.188;8.602;2023-05-29T09:34:39;18.03;51.75
66740;DHT22;53653;52.188;8.602;2023-05-29T09:37:07;17.86;51.80
66740;DHT22;53653;52.188;8.602;2023-05-29T09:39:47;18.06;51.11
66740;DHT22;53653;52.188;8.602;2023-05-29T09:42:16;17.34;52.87
66740;DHT22;53653;52.188;8.602;2023-05-29T09:44:53;17.75;53.08
66740;DHT22;53653;52.188;8.602;2023-05-29T09:47:19;17.71;52.81
66740;DHT22;53653;52.188;8.602;2023-05-29T09:49:45;17.64;52.24
66740;DHT22;53653;52.188;8.602;2023-05-29T09:52:12;17.42;53.00
66740;DHT22;53653;52.188;8.602;2023-05-29T09:54:41;17.30;53.89
66740;DHT22;53653;52.188;8.602;2023-05-29T09:57:07;17.99;53.69
66740;DHT22;53653;52.188;8.602;2023-05-29T09:59:35;18.51;52.13
66740;DHT22;53653;52.188;8.602;2023-05-29T10:02:03;18.82;50.40
66740;DHT22;53653;52.188;8.602;2023-05-29T10:04:36;18.29;51.60
66740;DHT22;53653;52.188;8.602;2023-05-29T10:07:09;18.34;52.70
66740;DHT22;53653;52.188;8.602;2023-05-29T10:09:41;18.51;51.76
66740;DHT22;53653;52.188;8.602;2023-05-29T10:12:11;19.46;50.25
66740;DHT22;53653;52.188;8.602;2023-05-29T10:14:37;20.07;48.90
66740;DHT22;53653;52.188;8.602;2023-05-29T10:17:07;19.71;47.38
66740;DHT22;53653;52.188;8.602;2023-05-29T10:19:36;18.75;49.79
66740;DHT22;53653;52.188;8.602;2023-05-29T10:22:02;18.69;50.40
66740;DHT22;53653;52.188;8.602;2023-05-29T10:24:30;18.47;51.16
66740;DHT22;53653;52.188;8.602;2023-05-29T10:26:57;18.85;50.99
66740;DHT22;53653;52.188;8.602;2023-05-29T10:37:33;19.82;49.34
66740;DHT22;53653;52.188;8.602;2023-05-29T10:40:09;19.02;50.06
66740;DHT22;53653;52.188;8.602;2023-05-29T10:45:04;19.18;50.02
66740;DHT22;53653;52.188;8.602;2023-05-29T10:47:30;20.08;48.87
66740;DHT22;53653;52.188;8.602;2023-05-29T10:50:00;20.86;46.91
66740;DHT22;53653;52.188;8.602;2023-05-29T10:52:26;20.93;45.95
66740;DHT22;53653;52.188;8.602;2023-05-29T10:54:55;20.26;46.94
66740;DHT22;53653;52.188;8.602;2023-05-29T10:57:22;20.81;47.00
66740;DHT22;53653;52.188;8.602;2023-05-29T10:59:58;20.95;45.60
66740;DHT22;53653;52.188;8.602;2023-05-29T11:02:24;21.08;46.52
66740;DHT22;53653;52.188;8.602;2023-05-29T11:05:25;21.34;45.66
66740;DHT22;53653;52.188;8.602;2023-05-29T11:07:59;20.81;47.68
66740;DHT22;53653;52.188;8.602;2023-05-29T11:10:43;20.79;46.72
66740;DHT22;53653;52.188;8.602;2023-05-29T11:13:10;20.87;46.86
66740;DHT22;53653;52.188;8.602;2023-05-29T11:15:37;20.57;46.83
66740;DHT22;53653;52.188;8.602;2023-05-29T11:18:07;20.79;46.95
66740;DHT22;53653;52.188;8.602;2023-05-29T11:25:24;20.98;46.54
66740;DHT22;53653;52.188;8.602;2023-05-29T11:27:50;20.87;46.23
66740;DHT22;53653;52.188;8.602;2023-05-29T11:30:19;20.43;47.86
66740;DHT22;53653;52.188;8.602;2023-05-29T11:32:46;21.21;46.80
66740;DHT22;53653;52.188;8.602;2023-05-29T11:35:19;21.53;46.08
66740;DHT22;53653;52.188;8.602;2023-05-29T11:37:47;21.04;46.91
66740;DHT22;53653;52.188;8.602;2023-05-29T11:40:14;21.35;45.74
66740;DHT22;53653;52.188;8.602;2023-05-29T11:42:45;21.61;45.39
66740;DHT22;53653;52.188;8.602;2023-05-29T11:45:15;21.76;45.06
66740;DHT22;53653;52.188;8.602;2023-05-29T11:47:55;22.06;45.17
66740;DHT22;53653;52.188;8.602;2023-05-29T11:50:23;21.10;45.48
66740;DHT22;53653;52.188;8.602;2023-05-29T11:52:49;21.20;46.88
66740;DHT22;53653;52.188;8.602;2023-05-29T11:55:14;21.31;45.62
66740;DHT22;53653;52.188;8.602;2023-05-29T11:57:40;21.69;45.32
66740;DHT22;53653;52.188;8.602;2023-05-29T12:00:07;22.16;44.00
66740;DHT22;53653;52.188;8.602;2023-05-29T12:02:36;21.31;45.10
66740;DHT22;53653;52.188;8.602;2023-05-29T12:05:05;21.10;47.08
66740;DHT22;53653;52.188;8.602;2023-05-29T12:07:35;21.39;45.22
66740;DHT22;53653;52.188;8.602;2023-05-29T12:10:14;22.01;44.67
66740;DHT22;53653;52.188;8.602;2023-05-29T12:12:40;22.14;45.09
66740;DHT22;53653;52.188;8.602;2023-05-29T12:15:07;21.14;46.09
66740;DHT22;53653;52.188;8.602;2023-05-29T12:17:34;21.04;47.50
66740;DHT22;53653;52.188;8.602;2023-05-29T12:20:01;20.91;47.21
66740;DHT22;53653;52.188;8.602;2023-05-29T12:22:39;21.78;45.03
66740;DHT22;53653;52.188;8.602;2023-05-29T12:25:16;20.70;47.40
66740;DHT22;53653;52.188;8.602;2023-05-29T12:27:44;21.38;47.36
66740;DHT22;53653;52.188;8.602;2023-05-29T12:30:23;21.05;46.48
66740;DHT22;53653;52.188;8.602;2023-05-29T12:32:51;20.97;46.89
66740;DHT22;53653;52.188;8.602;2023-05-29T12:37:53;21.53;46.15
66740;DHT22;53653;52.188;8.602;2023-05-29T12:40:24;21.35;46.02
66740;DHT22;53653;52.188;8.602;2023-05-29T12:42:55;20.88;46.79
66740;DHT22;53653;52.188;8.602;2023-05-29T12:45:24;20.40;47.85
66740;DHT22;53653;52.188;8.602;2023-05-29T12:48:00;21.14;46.91
66740;DHT22;53653;52.188;8.602;2023-05-29T12:50:36;21.69;44.92
66740;DHT22;53653;52.188;8.602;2023-05-29T12:53:04;21.20;46.20
66740;DHT22;53653;52.188;8.602;2023-05-29T12:55:32;21.21;45.71
66740;DHT22;53653;52.188;8.602;2023-05-29T12:58:13;20.50;46.71
66740;DHT22;53653;52.188;8.602;2023-05-29T13:00:40;20.52;46.63
66740;DHT22;53653;52.188;8.602;2023-05-29T13:03:06;20.79;45.18
66740;DHT22;53653;52.188;8.602;2023-05-29T13:05:32;20.67;43.98
66740;DHT22;53653;52.188;8.602;2023-05-29T13:07:58;20.60;44.79
66740;DHT22;53653;52.188;8.602;2023-05-29T13:10:25;20.35;44.73
66740;DHT22;53653;52.188;8.602;2023-05-29T13:12:52;20.40;44.45
66740;DHT22;53653;52.188;8.602;2023-05-29T13:15:24;20.88;43.25
66740;DHT22;53653;52.188;8.602;2023-05-29T13:17:50;20.62;43.59
66740;DHT22;53653;52.188;8.602;2023-05-29T13:20:16;20.59;41.47
66740;DHT22;53653;52.188;8.602;2023-05-29T13:22:45;20.45;39.70
66740;DHT22;53653;52.188;8.602;2023-05-29T13:25:12;20.40;40.64
66740;DHT22;53653;52.188;8.602;2023-05-29T13:27:45;20.70;39.71
66740;DHT22;53653;52.188;8.602;2023-05-29T13:30:12;20.94;38.65
66740;DHT22;53653;52.188;8.602;2023-05-29T13:32:38;20.83;38.37
66740;DHT22;53653;52.188;8.602;2023-05-29T13:35:04;20.90;38.89
66740;DHT22;53653;52.188;8.602;2023-05-29T13:37:29;20.39;37.03
66740;DHT22;53653;52.188;8.602;2023-05-29T13:39:55;20.35;38.36
66740;DHT22;53653;52.188;8.602;2023-05-29T13:42:21;20.30;39.70
66740;DHT22;53653;52.188;8.602;2023-05-29T13:44:47;20.18;39.54
66740;DHT22;53653;52.188;8.602;2023-05-29T13:47:13;20.84;37.02
66740;DHT22;53653;52.188;8.602;2023-05-29T13:49:39;21.11;35.69
66740;DHT22;53653;52.188;8.602;2023-05-29T13:52:05;20.84;36.91
66740;DHT22;53653;52.188;8.602;2023-05-29T13:54:31;21.25;37.57
66740;DHT22;53653;52.188;8.602;2023-05-29T13:57:04;20.73;37.76
66740;DHT22;53653;52.188;8.602;2023-05-29T13:59:32;20.74;36.00
66740;DHT22;53653;52.188;8.602;2023-05-29T14:01:57;20.86;36.32
66740;DHT22;53653;52.188;8.602;2023-05-29T14:04:23;20.88;35.43
66740;DHT22;53653;52.188;8.602;2023-05-29T14:06:49;19.98;36.30
66740;DHT22;53653;52.188;8.602;2023-05-29T14:09:14;19.91;37.25
66740;DHT22;53653;52.188;8.602;2023-05-29T14:11:40;20.32;35.92
66740;DHT22;53653;52.188;8.602;2023-05-29T14:14:06;20.67;36.38
66740;DHT22;53653;52.188;8.602;2023-05-29T14:16:32;20.77;37.46
66740;DHT22;53653;52.188;8.602;2023-05-29T14:18:59;20.76;38.13
66740;DHT22;53653;52.188;8.602;2023-05-29T14:21:24;20.94;36.99
66740;DHT22;53653;52.188;8.602;2023-05-29T14:23:50;21.11;36.78
66740;DHT22;53653;52.188;8.602;2023-05-29T14:26:16;20.91;35.28
66740;DHT22;53653;52.188;8.602;2023-05-29T14:28:41;20.28;34.57
66740;DHT22;53653;52.188;8.602;2023-05-29T14:31:07;20.19;36.50
66740;DHT22;53653;52.188;8.602;2023-05-29T14:33:32;20.42;36.19
66740;DHT22;53653;52.188;8.602;2023-05-29T14:35:58;20.30;36.40
66740;DHT22;53653;52.188;8.602;2023-05-29T14:38:24;20.66;34.81
66740;DHT22;53653;52.188;8.602;2023-05-29T14:40:49;20.59;36.56
66740;DHT22;53653;52.188;8.602;2023-05-29T14:43:15;20.81;36.93
66740;DHT22;53653;52.188;8.602;2023-05-29T14:45:40;20.90;38.16
66740;DHT22;53653;52.188;8.602;2023-05-29T14:48:06;20.73;38.01
66740;DHT22;53653;52.188;8.602;2023-05-29T14:50:31;20.60;36.63
66740;DHT22;53653;52.188;8.602;2023-05-29T14:52:57;20.35;37.71
66740;DHT22;53653;52.188;8.602;2023-05-29T14:55:22;20.42;38.19
66740;DHT22;53653;52.188;8.602;2023-05-29T14:57:48;20.04;39.20
66740;DHT22;53653;52.188;8.602;2023-05-29T15:00:14;20.56;39.82
66740;DHT22;53653;52.188;8.602;2023-05-29T15:02:39;20.81;38.42
66740;DHT22;53653;52.188;8.602;2023-05-29T15:05:06;20.76;38.21
66740;DHT22;53653;52.188;8.602;2023-05-29T15:07:32;20.72;36.99
66740;DHT22;53653;52.188;8.602;2023-05-29T15:10:01;20.21;35.38
66740;DHT22;53653;52.188;8.602;2023-05-29T15:12:27;20.14;35.63
66740;DHT22;53653;52.188;8.602;2023-05-29T15:14:52;19.73;35.89
66740;DHT22;53653;52.188;8.602;2023-05-29T15:17:18;20.04;36.86
66740;DHT22;53653;52.188;8.602;2023-05-29T15:19:44;20.07;37.42
66740;DHT22;53653;52.188;8.602;2023-05-29T15:22:10;20.08;39.13
66740;DHT22;53653;52.188;8.602;2023-05-29T15:24:35;20.09;39.66
66740;DHT22;53653;52.188;8.602;2023-05-29T15:27:01;19.97;40.60
66740;DHT22;53653;52.188;8.602;2023-05-29T15:29:33;20.12;40.24
66740;DHT22;53653;52.188;8.602;2023-05-29T15:32:00;20.55;40.00
66740;DHT22;53653;52.188;8.602;2023-05-29T15:34:25;20.83;39.52
66740;DHT22;53653;52.188;8.602;2023-05-29T15:36:51;21.07;38.73
66740;DHT22;53653;52.188;8.602;2023-05-29T15:39:16;20.57;39.50
66740;DHT22;53653;52.188;8.602;2023-05-29T15:41:42;20.18;38.85
66740;DHT22;53653;52.188;8.602;2023-05-29T15:44:07;19.85;40.29
66740;DHT22;53653;52.188;8.602;2023-05-29T15:46:33;19.66;38.54
66740;DHT22;53653;52.188;8.602;2023-05-29T15:48:58;19.59;40.20
66740;DHT22;53653;52.188;8.602;2023-05-29T15:51:24;19.50;41.45
66740;DHT22;53653;52.188;8.602;2023-05-29T15:53:49;19.71;41.29
66740;DHT22;53653;52.188;8.602;2023-05-29T15:56:15;19.73;41.26
66740;DHT22;53653;52.188;8.602;2023-05-29T15:58:40;19.66;42.03